createdAt,value
2022-10-24T00:02:59.384Z,19.37
2022-10-24T00:07:00.401Z,26.93
2022-10-24T00:11:01.348Z,18.67
2022-10-24T00:15:03.686Z,22.17
2022-10-24T00:19:04.605Z,17.73
2022-10-24T00:23:05.610Z,13.77
2022-10-24T00:27:08.962Z,15.97
2022-10-24T00:31:13.632Z,17.63
2022-10-24T00:35:14.549Z,19.80
2022-10-24T00:39:15.482Z,16.73
2022-10-24T00:43:19.432Z,18.67
2022-10-24T00:47:24.412Z,12.80
2022-10-24T00:51:28.564Z,14.67
2022-10-24T00:55:29.532Z,14.80
2022-10-24T00:59:30.608Z,16.27
2022-10-24T01:03:31.977Z,16.87
2022-10-24T01:07:46.764Z,12.70
2022-10-24T01:11:51.492Z,14.83
2022-10-24T01:16:17.257Z,14.67
2022-10-24T01:20:27.772Z,15.47
2022-10-24T01:24:49.245Z,12.87
2022-10-24T01:29:20.421Z,17.70
2022-10-24T01:33:28.031Z,15.87
2022-10-24T01:38:01.304Z,16.27
2022-10-24T01:42:04.267Z,15.17
2022-10-24T01:46:11.436Z,23.33
2022-10-24T01:50:15.448Z,14.30
2022-10-24T01:54:16.786Z,17.03
2022-10-24T01:58:18.782Z,14.60
2022-10-24T02:02:44.890Z,12.30
2022-10-24T02:06:47.288Z,18.47
2022-10-24T02:10:52.073Z,13.83
2022-10-24T02:14:59.945Z,11.63
2022-10-24T02:19:00.892Z,12.10
2022-10-24T02:23:08.462Z,16.83
2022-10-24T02:27:16.003Z,13.80
2022-10-24T02:31:22.071Z,16.20
2022-10-24T02:35:29.165Z,15.83
2022-10-24T02:39:31.316Z,19.23
2022-10-24T02:43:34.391Z,21.07
2022-10-24T02:47:37.415Z,26.13
2022-10-24T02:51:41.500Z,22.17
2022-10-24T02:55:42.443Z,26.13
2022-10-24T02:59:43.469Z,15.33
2022-10-24T03:03:44.642Z,19.37
2022-10-24T03:07:45.606Z,24.03
2022-10-24T03:11:47.045Z,20.93
2022-10-24T03:19:48.842Z,25.27
2022-10-24T03:23:49.906Z,15.50
2022-10-24T03:27:50.900Z,20.27
2022-10-24T03:31:51.851Z,17.40
2022-10-24T03:35:53.804Z,19.17
2022-10-24T03:39:54.926Z,18.90
2022-10-24T03:43:56.602Z,14.27
2022-10-24T03:47:57.526Z,14.27
2022-10-24T03:51:58.397Z,13.27
2022-10-24T03:55:59.879Z,26.13
2022-10-24T04:00:00.749Z,15.90
2022-10-24T04:04:01.893Z,19.27
2022-10-24T04:08:03.099Z,17.67
2022-10-24T04:12:04.516Z,17.10
2022-10-24T04:16:06.336Z,19.93
2022-10-24T04:20:08.155Z,22.23
2022-10-24T04:24:09.621Z,17.50
2022-10-24T04:28:11.010Z,17.23
2022-10-24T04:32:12.070Z,17.63
2022-10-24T04:36:13.135Z,13.47
2022-10-24T04:40:14.107Z,13.33
2022-10-24T04:44:15.048Z,14.03
2022-10-24T04:48:16.306Z,17.67
2022-10-24T04:52:17.338Z,14.37
2022-10-24T04:56:19.118Z,15.32
2022-10-24T05:00:20.193Z,22.50
2022-10-24T05:04:21.621Z,16.73
2022-10-24T05:08:22.549Z,19.57
2022-10-24T05:12:23.471Z,23.13
2022-10-24T05:16:24.521Z,19.73
2022-10-24T05:20:26.285Z,15.20
2022-10-24T05:24:27.377Z,18.25
2022-10-24T05:28:28.457Z,18.23
2022-10-24T05:32:29.546Z,14.70
2022-10-24T05:36:30.731Z,22.53
2022-10-24T05:40:31.706Z,22.77
2022-10-24T05:44:32.684Z,22.70
2022-10-24T05:48:33.553Z,13.87
2022-10-24T05:52:35.942Z,18.20
2022-10-24T05:56:36.801Z,18.80
2022-10-24T06:00:37.790Z,19.20
2022-10-24T06:04:38.882Z,17.83
2022-10-24T06:08:40.026Z,20.10
2022-10-24T06:12:41.281Z,11.63
2022-10-24T06:16:42.548Z,16.33
2022-10-24T06:20:43.503Z,17.83
2022-10-24T06:24:44.471Z,16.50
2022-10-24T06:28:45.608Z,11.97
2022-10-24T06:32:47.002Z,13.37
2022-10-24T06:36:48.447Z,14.17
2022-10-24T06:40:49.583Z,13.63
2022-10-24T06:44:50.847Z,16.43
2022-10-24T06:48:55.155Z,19.67
2022-10-24T06:52:56.162Z,8.53
2022-10-24T06:56:57.319Z,14.07
2022-10-24T07:00:58.503Z,11.13
2022-10-24T07:04:59.858Z,11.40
2022-10-24T07:09:02.453Z,16.07
2022-10-24T07:13:03.659Z,11.37
2022-10-24T07:17:05.265Z,9.10
2022-10-24T07:21:10.077Z,14.27
2022-10-24T07:25:11.331Z,18.50
2022-10-24T07:29:12.361Z,17.17
2022-10-24T07:33:15.787Z,16.97
2022-10-24T07:37:17.891Z,13.70
2022-10-24T07:41:19.674Z,14.67
2022-10-24T07:45:20.930Z,14.27
2022-10-24T07:49:22.287Z,12.20
2022-10-24T07:53:25.157Z,14.10
2022-10-24T07:57:26.660Z,17.00
2022-10-24T08:01:28.978Z,14.10
2022-10-24T08:05:30.104Z,13.27
2022-10-24T08:09:31.242Z,12.90
2022-10-24T08:13:32.264Z,15.40
2022-10-24T08:17:33.499Z,19.37
2022-10-24T08:21:35.762Z,14.83
2022-10-24T08:25:40.482Z,18.90
2022-10-24T08:29:41.433Z,13.37
2022-10-24T08:33:42.907Z,10.80
2022-10-24T08:37:44.245Z,19.20
2022-10-24T08:41:52.580Z,17.27
2022-10-24T08:46:22.993Z,19.47
2022-10-24T08:50:32.932Z,15.90
2022-10-24T08:54:37.512Z,18.87
2022-10-24T08:58:42.338Z,17.90
2022-10-24T09:02:47.929Z,13.53
2022-10-24T09:06:52.627Z,15.87
2022-10-24T09:10:59.859Z,14.83
2022-10-24T09:15:01.136Z,17.87
2022-10-24T09:19:02.114Z,12.43
2022-10-24T09:23:05.379Z,8.77
2022-10-24T09:27:10.179Z,14.60
2022-10-24T09:31:23.860Z,15.50
2022-10-24T09:35:28.146Z,14.73
2022-10-24T09:39:36.035Z,12.00
2022-10-24T09:43:40.745Z,15.50
2022-10-24T09:47:42.839Z,9.90
2022-10-24T09:52:04.259Z,13.43
2022-10-24T09:56:13.751Z,23.93
2022-10-24T10:00:27.523Z,14.07
2022-10-24T10:04:28.560Z,15.23
2022-10-24T10:08:32.797Z,14.07
2022-10-24T10:12:39.973Z,16.10
2022-10-24T10:16:41.966Z,15.83
2022-10-24T10:20:42.931Z,12.87
2022-10-24T10:24:45.540Z,20.13
2022-10-24T10:28:59.075Z,15.10
2022-10-24T10:33:12.579Z,18.40
2022-10-24T10:37:35.349Z,9.83
2022-10-24T10:41:46.535Z,10.20
2022-10-24T10:45:56.991Z,14.80
2022-10-24T10:49:58.430Z,12.67
2022-10-24T10:54:09.269Z,11.10
2022-10-24T10:58:34.011Z,16.40
2022-10-24T11:02:53.897Z,7.97
2022-10-24T11:07:01.687Z,12.30
2022-10-24T11:11:05.736Z,13.13
2022-10-24T11:15:27.464Z,12.17
2022-10-24T11:19:35.274Z,19.53
2022-10-24T11:23:48.757Z,8.00
2022-10-24T11:27:53.570Z,11.77
2022-10-24T11:32:05.800Z,12.77
2022-10-24T11:36:19.399Z,5.60
2022-10-24T11:40:21.974Z,9.10
2022-10-24T11:44:26.913Z,8.23
2022-10-24T11:48:31.694Z,10.73
2022-10-24T11:52:36.456Z,10.23
2022-10-24T11:56:47.354Z,6.40
2022-10-24T12:01:10.679Z,7.83
2022-10-24T12:05:34.248Z,8.63
2022-10-24T12:09:42.005Z,10.67
2022-10-24T12:14:08.674Z,5.93
2022-10-24T12:18:30.467Z,4.17
2022-10-24T12:22:35.268Z,8.50
2022-10-24T12:26:36.449Z,5.63
2022-10-24T12:30:37.852Z,18.43
2022-10-24T12:34:48.934Z,5.97
2022-10-24T12:38:59.634Z,7.47
2022-10-24T12:43:07.242Z,4.50
2022-10-24T12:47:29.010Z,6.13
2022-10-24T12:51:38.159Z,7.20
2022-10-24T12:55:45.780Z,7.83
2022-10-24T12:59:49.594Z,4.73
2022-10-24T13:04:03.252Z,5.63
2022-10-24T13:08:23.234Z,3.57
2022-10-24T13:12:40.178Z,6.60
2022-10-24T13:16:59.790Z,4.50
2022-10-24T13:21:16.673Z,4.60
2022-10-24T13:25:32.097Z,5.27
2022-10-24T13:29:36.901Z,3.37
2022-10-24T13:33:41.285Z,14.77
2022-10-24T13:37:46.242Z,5.17
2022-10-24T13:41:51.161Z,9.80
2022-10-24T13:45:59.023Z,2.73
2022-10-24T13:50:12.747Z,4.87
2022-10-24T13:54:17.561Z,4.93
2022-10-24T14:02:32.405Z,5.17
2022-10-24T14:06:33.743Z,4.80
2022-10-24T14:10:36.885Z,5.93
2022-10-24T14:14:40.444Z,4.63
2022-10-24T14:18:42.942Z,3.70
2022-10-24T14:22:44.771Z,4.93
2022-10-24T14:26:47.396Z,6.03
2022-10-24T14:30:55.304Z,6.33
2022-10-24T14:34:58.531Z,6.63
2022-10-24T14:39:00.497Z,3.53
2022-10-24T14:43:02.934Z,8.13
2022-10-24T14:47:07.598Z,3.33
2022-10-24T14:51:24.437Z,6.33
2022-10-24T14:55:26.133Z,2.73
2022-10-24T14:59:34.677Z,4.87
2022-10-24T15:03:39.643Z,6.00
2022-10-24T15:07:48.358Z,3.50
2022-10-24T15:11:47.700Z,5.27
2022-10-24T15:15:55.528Z,6.50
2022-10-24T15:19:59.561Z,13.37
2022-10-24T15:24:01.630Z,5.73
2022-10-24T15:28:05.084Z,5.10
2022-10-24T15:32:09.441Z,6.87
2022-10-24T15:36:16.744Z,4.73
2022-10-24T15:40:21.187Z,4.50
2022-10-24T15:44:26.099Z,9.03
2022-10-24T15:48:27.095Z,6.67
2022-10-24T15:52:28.131Z,5.60
2022-10-24T15:56:29.200Z,3.97
2022-10-24T16:00:30.481Z,6.23
2022-10-24T16:04:32.846Z,5.30
2022-10-24T16:08:34.019Z,5.43
2022-10-24T16:12:35.201Z,6.53
2022-10-24T16:16:36.173Z,3.20
2022-10-24T16:20:37.533Z,5.83
2022-10-24T16:24:38.766Z,6.43
2022-10-24T16:28:40.176Z,7.67
2022-10-24T16:32:41.398Z,6.77
2022-10-24T16:36:42.415Z,5.07
2022-10-24T16:40:46.880Z,6.92
2022-10-24T16:44:47.941Z,8.00
2022-10-24T16:48:49.536Z,5.67
2022-10-24T16:52:53.517Z,5.47
2022-10-24T16:56:54.870Z,6.80
2022-10-24T17:01:04.722Z,7.57
2022-10-24T17:05:06.039Z,5.67
2022-10-24T17:09:07.131Z,7.87
2022-10-24T17:13:08.386Z,6.50
2022-10-24T17:17:09.410Z,6.50
2022-10-24T17:21:10.598Z,5.83
2022-10-24T17:25:24.212Z,7.47
2022-10-24T17:29:31.639Z,13.20
2022-10-24T17:33:36.250Z,7.13
2022-10-24T17:37:49.029Z,10.55
2022-10-24T17:41:52.838Z,9.27
2022-10-24T17:45:56.051Z,6.62
2022-10-24T17:49:57.229Z,5.97
2022-10-24T17:53:58.506Z,4.40
2022-10-24T17:57:59.825Z,9.73
2022-10-24T18:02:01.225Z,11.37
2022-10-24T18:06:05.175Z,6.90
2022-10-24T18:10:07.168Z,6.12
2022-10-24T18:14:08.479Z,8.43
2022-10-24T18:18:10.890Z,8.30
2022-10-24T18:22:11.841Z,8.77
2022-10-24T18:26:15.325Z,6.67
2022-10-24T18:30:16.642Z,13.37
2022-10-24T18:34:17.608Z,4.97
2022-10-24T18:38:18.599Z,10.77
2022-10-24T18:42:32.555Z,12.13
2022-10-24T18:46:33.996Z,11.10
2022-10-24T18:50:36.195Z,11.60
2022-10-24T18:54:42.524Z,5.90
2022-10-24T18:58:43.746Z,6.40
2022-10-24T19:02:48.646Z,8.13
2022-10-24T19:06:52.776Z,10.47
2022-10-24T19:10:55.397Z,13.53
2022-10-24T19:14:56.639Z,10.73
2022-10-24T19:18:59.667Z,6.60
2022-10-24T19:23:02.549Z,7.70
2022-10-24T19:27:04.151Z,8.00
2022-10-24T19:31:06.291Z,19.90
2022-10-24T19:35:07.793Z,7.00
2022-10-24T19:39:08.906Z,7.77
2022-10-24T19:43:10.956Z,10.67
2022-10-24T19:47:12.232Z,10.67
2022-10-24T19:51:13.284Z,10.03
2022-10-24T19:55:14.550Z,4.13
2022-10-24T19:59:16.036Z,8.83
2022-10-24T20:03:17.267Z,7.50
2022-10-24T20:07:19.637Z,10.10
2022-10-24T20:11:21.091Z,8.33
2022-10-24T20:15:22.112Z,7.53
2022-10-24T20:19:23.036Z,5.70
2022-10-24T20:23:25.312Z,6.70
2022-10-24T20:27:26.350Z,15.93
2022-10-24T20:31:31.111Z,9.00
2022-10-24T20:35:32.578Z,7.93
2022-10-24T20:39:34.709Z,10.90
2022-10-24T20:43:36.057Z,5.77
2022-10-24T20:47:38.010Z,6.07
2022-10-24T20:51:42.958Z,10.27
2022-10-24T20:55:44.786Z,7.97
2022-10-24T20:59:46.352Z,5.40
2022-10-24T21:03:48.961Z,9.10
2022-10-24T21:07:50.409Z,11.53
2022-10-24T21:11:55.644Z,8.33
2022-10-24T21:15:57.248Z,7.40
2022-10-24T21:19:58.250Z,11.70
2022-10-24T21:24:04.315Z,6.63
2022-10-24T21:28:04.522Z,8.80
2022-10-24T21:32:07.652Z,9.03
2022-10-24T21:36:12.155Z,8.63
2022-10-24T21:40:16.598Z,6.43
2022-10-24T21:44:17.554Z,7.60
2022-10-24T21:48:21.901Z,9.10
2022-10-24T21:52:21.629Z,9.30
2022-10-24T21:56:27.375Z,7.90
2022-10-24T22:00:28.413Z,4.73
2022-10-24T22:04:29.522Z,6.23
2022-10-24T22:08:30.854Z,3.10
2022-10-24T22:12:33.205Z,8.90
2022-10-24T22:16:34.275Z,7.33
2022-10-24T22:20:37.418Z,2.60
2022-10-24T22:24:38.664Z,2.80
2022-10-24T22:28:40.050Z,4.40
2022-10-24T22:32:42.183Z,6.57
2022-10-24T22:37:08.419Z,4.23
2022-10-24T22:41:10.530Z,6.57
2022-10-24T22:45:12.612Z,5.03
2022-10-24T22:49:20.432Z,9.17
2022-10-24T22:53:24.123Z,6.07
2022-10-24T22:57:25.624Z,13.93
2022-10-24T23:01:48.642Z,7.40
2022-10-24T23:05:53.509Z,7.97
2022-10-24T23:09:55.032Z,7.13
2022-10-24T23:13:57.136Z,7.13
2022-10-24T23:17:59.086Z,7.73
2022-10-24T23:22:09.794Z,7.10
2022-10-24T23:26:20.809Z,8.10
2022-10-24T23:30:23.105Z,9.13
2022-10-24T23:34:25.626Z,4.07
2022-10-24T23:38:27.287Z,5.03
2022-10-24T23:42:28.840Z,12.33
2022-10-24T23:46:36.785Z,6.03
2022-10-24T23:50:41.677Z,4.63
2022-10-24T23:54:43.295Z,8.27
2022-10-24T23:58:44.312Z,6.73
